Terminal Aerodrome Forecast
Issued by NWS Tulsa, OK

Home | Current Version | Previous Version | Text Only | Print | Product List | Glossary On
Versions: 1 2 3 4 5 6 7 8 9 10 11 12 13 14
000
FTUS44 KTSA 281140
TAFFSM
TAF
KFSM 281140Z 2812/2912 09006KT P6SM SCT150 BKN250
     FM290300 07005KT P6SM BKN120 PROB30 2906/2912 5SM -TSRA
      BKN050CB=

USA.gov is the U.S. government's official web portal to all federal, state and local government web resources and services.